createdAt,value
2018-03-25T00:00:14.887Z,61.26
2018-03-25T00:01:14.902Z,61.93
2018-03-25T00:02:14.919Z,61.93
2018-03-25T00:03:14.936Z,61.83
2018-03-25T00:04:14.946Z,62.31
2018-03-25T00:05:14.964Z,61.83
2018-03-25T00:06:14.981Z,61.93
2018-03-25T00:07:14.742Z,62.4
2018-03-25T00:08:14.753Z,62.59
2018-03-25T00:09:15.073Z,62.69
2018-03-25T00:10:15.046Z,62.31
2018-03-25T00:11:14.812Z,63.26
2018-03-25T00:12:15.074Z,63.17
2018-03-25T00:13:15.093Z,62.97
2018-03-25T00:14:14.850Z,62.59
2018-03-25T00:15:15.123Z,62.21
2018-03-25T00:16:14.881Z,62.78
2018-03-25T00:17:15.152Z,62.97
2018-03-25T00:18:15.173Z,62.4
2018-03-25T00:19:15.186Z,62.88
2018-03-25T00:20:15.205Z,63.07
2018-03-25T00:21:15.217Z,62.4
2018-03-25T00:22:15.235Z,62.4
2018-03-25T00:23:14.994Z,63.35
2018-03-25T00:24:15.316Z,63.64
2018-03-25T00:25:15.282Z,63.26
2018-03-25T00:26:15.307Z,63.45
2018-03-25T00:27:15.055Z,63.64
2018-03-25T00:28:15.324Z,63.83
2018-03-25T00:29:15.087Z,63.54
2018-03-25T00:30:15.355Z,63.83
2018-03-25T00:31:15.368Z,63.54
2018-03-25T00:32:15.142Z,63.45
2018-03-25T00:33:15.156Z,63.98
2018-03-25T00:34:15.163Z,64.3
2018-03-25T00:35:15.178Z,64.49
2018-03-25T00:36:15.198Z,63.89
2018-03-25T00:37:15.208Z,63.98
2018-03-25T00:38:15.470Z,63.92
2018-03-25T00:39:15.237Z,63.89
2018-03-25T00:40:15.502Z,64.21
2018-03-25T00:41:15.266Z,64.49
2018-03-25T00:42:15.549Z,64.21
2018-03-25T00:43:15.610Z,64.4
2018-03-25T00:44:15.575Z,64.11
2018-03-25T00:45:15.590Z,64.21
2018-03-25T00:46:15.608Z,64.3
2018-03-25T00:47:15.624Z,63.79
2018-03-25T00:48:15.638Z,64.75
2018-03-25T00:49:15.404Z,65.5
2018-03-25T00:50:15.669Z,64.75
2018-03-25T00:51:15.687Z,64.17
2018-03-25T00:52:15.446Z,64.37
2018-03-25T00:53:15.458Z,63.98
2018-03-25T00:54:15.481Z,64.84
2018-03-25T00:55:15.746Z,65.88
2018-03-25T00:56:15.785Z,65.31
2018-03-25T00:57:15.789Z,64.94
2018-03-25T00:58:15.840Z,64.94
2018-03-25T00:59:15.810Z,65.41
2018-03-25T01:00:15.820Z,64.84
2018-03-25T01:01:15.844Z,64.84
2018-03-25T01:02:15.855Z,64.75
2018-03-25T01:03:15.875Z,64.94
2018-03-25T01:04:15.899Z,65.03
2018-03-25T01:05:15.895Z,65.12
2018-03-25T01:06:15.652Z,65.6
2018-03-25T01:07:15.666Z,64.84
2018-03-25T01:08:15.937Z,64.94
2018-03-25T01:09:15.698Z,65.88
2018-03-25T01:10:15.723Z,65.79
2018-03-25T01:11:15.992Z,65.98
2018-03-25T01:12:16.009Z,66.17
2018-03-25T01:13:16.074Z,65.5
2018-03-25T01:14:16.039Z,65.79
2018-03-25T01:15:16.057Z,66.36
2018-03-25T01:16:15.833Z,66.27
2018-03-25T01:17:15.829Z,66.93
2018-03-25T01:18:16.102Z,66.36
2018-03-25T01:19:16.113Z,65.69
2018-03-25T01:20:15.878Z,66.46
2018-03-25T01:21:16.150Z,66.46
2018-03-25T01:22:16.159Z,66.64
2018-03-25T01:23:16.261Z,66.61
2018-03-25T01:24:15.950Z,67.46
2018-03-25T01:25:16.208Z,66.83
2018-03-25T01:26:15.967Z,67.02
2018-03-25T01:27:16.236Z,67.4
2018-03-25T01:28:16.300Z,67.12
2018-03-25T01:29:16.265Z,66.93
2018-03-25T01:30:16.279Z,66.83
2018-03-25T01:31:16.295Z,66.55
2018-03-25T01:32:16.058Z,66.83
2018-03-25T01:33:16.337Z,66.74
2018-03-25T01:34:16.340Z,66.46
2018-03-25T01:35:16.356Z,66.64
2018-03-25T01:36:16.373Z,66.55
2018-03-25T01:37:16.131Z,66.93
2018-03-25T01:38:16.406Z,67.12
2018-03-25T01:39:16.430Z,66.55
2018-03-25T01:40:16.436Z,67.02
2018-03-25T01:41:16.452Z,66.74
2018-03-25T01:42:16.207Z,66.46
2018-03-25T01:43:16.272Z,66.17
2018-03-25T01:44:16.490Z,66.99
2018-03-25T01:45:16.253Z,67.65
2018-03-25T01:46:16.524Z,68.23
2018-03-25T01:47:16.283Z,67.65
2018-03-25T01:48:16.297Z,67.85
2018-03-25T01:49:16.567Z,68.04
2018-03-25T01:50:16.580Z,67.94
2018-03-25T01:51:16.597Z,67.5
2018-03-25T01:52:16.612Z,67.31
2018-03-25T01:53:16.379Z,67.79
2018-03-25T01:54:16.642Z,67.31
2018-03-25T01:55:16.401Z,66.8
2018-03-25T01:56:16.672Z,67.37
2018-03-25T01:57:16.713Z,66.83
2018-03-25T01:58:16.499Z,67.69
2018-03-25T01:59:16.720Z,67.88
2018-03-25T02:00:16.741Z,67.4
2018-03-25T02:01:16.747Z,67.69
2018-03-25T02:02:16.764Z,66.93
2018-03-25T02:03:16.523Z,66.27
2018-03-25T02:04:16.791Z,67.02
2018-03-25T02:05:16.808Z,67.08
2018-03-25T02:06:16.827Z,66.93
2018-03-25T02:07:16.859Z,67.18
2018-03-25T02:08:16.856Z,66.8
2018-03-25T02:09:16.615Z,66.89
2018-03-25T02:10:16.627Z,66.99
2018-03-25T02:11:16.898Z,67.37
2018-03-25T02:12:16.909Z,68.23
2018-03-25T02:13:16.722Z,67.94
2018-03-25T02:14:16.944Z,67.46
2018-03-25T02:15:16.956Z,67.27
2018-03-25T02:16:16.716Z,67.94
2018-03-25T02:17:16.988Z,67.27
2018-03-25T02:18:17.000Z,67.27
2018-03-25T02:19:17.013Z,67.27
2018-03-25T02:20:17.028Z,67.56
2018-03-25T02:21:16.790Z,67.37
2018-03-25T02:22:17.056Z,67.18
2018-03-25T02:23:17.083Z,67.56
2018-03-25T02:24:17.099Z,68.23
2018-03-25T02:25:17.106Z,67.27
2018-03-25T02:26:16.867Z,67.37
2018-03-25T02:27:17.133Z,67.94
2018-03-25T02:28:16.945Z,67.65
2018-03-25T02:29:17.166Z,67.46
2018-03-25T02:30:17.181Z,68.04
2018-03-25T02:31:16.942Z,67.46
2018-03-25T02:32:17.219Z,67.75
2018-03-25T02:33:17.232Z,67.94
2018-03-25T02:34:17.241Z,67.65
2018-03-25T02:35:17.259Z,68.04
2018-03-25T02:36:17.018Z,67.65
2018-03-25T02:37:17.038Z,66.89
2018-03-25T02:38:17.299Z,67.18
2018-03-25T02:39:17.311Z,67.27
2018-03-25T02:40:17.329Z,67.37
2018-03-25T02:41:17.093Z,67.27
2018-03-25T02:42:17.360Z,67.37
2018-03-25T02:43:17.166Z,67.46
2018-03-25T02:44:17.391Z,67.37
2018-03-25T02:45:17.418Z,67.37
2018-03-25T02:46:17.436Z,68.41
2018-03-25T02:47:17.437Z,68.13
2018-03-25T02:48:17.191Z,68.32
2018-03-25T02:49:17.461Z,68.41
2018-03-25T02:50:17.478Z,68.23
2018-03-25T02:51:17.504Z,67.85
2018-03-25T02:52:17.513Z,67.94
2018-03-25T02:53:17.523Z,67.37
2018-03-25T02:54:17.553Z,67.46
2018-03-25T02:55:17.556Z,68.23
2018-03-25T02:56:17.568Z,67.46
2018-03-25T02:57:17.593Z,68.04
2018-03-25T02:58:17.652Z,67.94
2018-03-25T02:59:17.611Z,68.89
2018-03-25T03:00:17.627Z,68.98
2018-03-25T03:01:17.645Z,68.79
2018-03-25T03:02:17.661Z,68.89
2018-03-25T03:03:17.672Z,68.98
2018-03-25T03:04:17.684Z,68.98
2018-03-25T03:05:17.701Z,68.7
2018-03-25T03:06:17.713Z,69.27
2018-03-25T03:07:17.729Z,69.36
2018-03-25T03:08:17.741Z,68.89
2018-03-25T03:09:17.502Z,68.89
2018-03-25T03:10:17.775Z,68.89
2018-03-25T03:11:17.789Z,68.98
2018-03-25T03:12:17.796Z,69.17
2018-03-25T03:13:17.610Z,68.89
2018-03-25T03:14:17.574Z,69.08
2018-03-25T03:15:17.854Z,69.17
2018-03-25T03:16:17.857Z,68.89
2018-03-25T03:17:17.876Z,69.36
2018-03-25T03:18:17.890Z,69.08
2018-03-25T03:19:17.650Z,68.98
2018-03-25T03:20:17.920Z,68.98
2018-03-25T03:21:17.939Z,68.98
2018-03-25T03:22:17.955Z,69.27
2018-03-25T03:23:17.980Z,69.46
2018-03-25T03:24:17.982Z,69.36
2018-03-25T03:25:17.996Z,69.46
2018-03-25T03:26:18.013Z,69.17
2018-03-25T03:27:18.038Z,69.08
2018-03-25T03:28:18.091Z,68.98
2018-03-25T03:29:17.799Z,68.98
2018-03-25T03:30:17.822Z,69.08
2018-03-25T03:31:18.089Z,69.36
2018-03-25T03:32:17.843Z,68.7
2018-03-25T03:33:17.858Z,68.41
2018-03-25T03:34:18.125Z,68.79
2018-03-25T03:35:18.143Z,68.98
2018-03-25T03:36:17.901Z,68.89
2018-03-25T03:37:18.171Z,68.98
2018-03-25T03:38:17.935Z,68.98
2018-03-25T03:39:18.205Z,68.89
2018-03-25T03:40:18.217Z,68.98
2018-03-25T03:41:18.232Z,69.17
2018-03-25T03:42:18.246Z,68.98
2018-03-25T03:43:18.311Z,68.6
2018-03-25T03:44:18.276Z,67.75
2018-03-25T03:45:18.033Z,68.89
2018-03-25T03:46:18.052Z,69.36
2018-03-25T03:47:18.064Z,69.33
2018-03-25T03:48:18.332Z,69.99
2018-03-25T03:49:18.093Z,70.09
2018-03-25T03:50:18.362Z,70.56
2018-03-25T03:51:18.379Z,70.56
2018-03-25T03:52:18.388Z,69.99
2018-03-25T03:53:18.403Z,70.47
2018-03-25T03:54:18.166Z,70.28
2018-03-25T03:55:18.438Z,70.47
2018-03-25T03:56:18.202Z,69.61
2018-03-25T03:57:18.210Z,69.99
2018-03-25T03:58:18.531Z,70.28
2018-03-25T03:59:18.493Z,70.09
2018-03-25T04:00:18.510Z,69.84
2018-03-25T04:01:18.522Z,69.71
2018-03-25T04:02:18.547Z,70.65
2018-03-25T04:03:18.552Z,71.41
2018-03-25T04:04:18.317Z,71.03
2018-03-25T04:05:18.580Z,70.56
2018-03-25T04:06:18.341Z,70.56
2018-03-25T04:07:18.612Z,70.28
2018-03-25T04:08:18.372Z,71.41
2018-03-25T04:09:18.385Z,70.37
2018-03-25T04:10:18.400Z,70.65
2018-03-25T04:11:18.674Z,70.56
2018-03-25T04:12:18.689Z,70.37
2018-03-25T04:13:18.749Z,71.13
2018-03-25T04:14:18.458Z,70.65
2018-03-25T04:15:18.727Z,70.75
2018-03-25T04:16:18.743Z,70.56
2018-03-25T04:17:18.758Z,69.99
2018-03-25T04:18:18.778Z,70.28
2018-03-25T04:19:18.532Z,69.71
2018-03-25T04:20:18.804Z,70.65
2018-03-25T04:21:18.820Z,70.18
2018-03-25T04:22:18.830Z,70.65
2018-03-25T04:23:18.847Z,70.5
2018-03-25T04:24:18.862Z,69.9
2018-03-25T04:25:18.622Z,70.18
2018-03-25T04:26:18.890Z,69.71
2018-03-25T04:27:18.905Z,70.09
2018-03-25T04:28:18.973Z,70.37
2018-03-25T04:29:18.675Z,70.37
2018-03-25T04:30:18.943Z,70.75
2018-03-25T04:31:18.707Z,71.32
2018-03-25T04:32:18.972Z,71.8
2018-03-25T04:33:18.988Z,71.8
2018-03-25T04:34:19.003Z,70.94
2018-03-25T04:35:19.040Z,71.41
2018-03-25T04:36:19.039Z,71.51
2018-03-25T04:37:19.048Z,70.65
2018-03-25T04:38:18.859Z,70.47
2018-03-25T04:39:19.079Z,70.56
2018-03-25T04:40:18.836Z,71.8
2018-03-25T04:41:19.104Z,71.13
2018-03-25T04:42:19.121Z,70.56
2018-03-25T04:43:19.132Z,70.56
2018-03-25T04:44:19.150Z,70.65
2018-03-25T04:45:19.162Z,70.47
2018-03-25T04:46:19.176Z,70.47
2018-03-25T04:47:18.975Z,70.75
2018-03-25T04:48:19.210Z,71.22
2018-03-25T04:49:19.218Z,71.51
2018-03-25T04:50:18.981Z,71.22
2018-03-25T04:51:19.254Z,71.32
2018-03-25T04:52:19.279Z,71.89
2018-03-25T04:53:19.330Z,70.56
2018-03-25T04:54:19.293Z,71.32
2018-03-25T04:55:19.308Z,71.32
2018-03-25T04:56:19.318Z,71.51
2018-03-25T04:57:19.082Z,71.03
2018-03-25T04:58:19.350Z,70.47
2018-03-25T04:59:19.110Z,70.65
2018-03-25T05:00:19.380Z,70.37
2018-03-25T05:01:19.398Z,71.03
2018-03-25T05:02:19.406Z,70.47
2018-03-25T05:03:19.167Z,71.51
2018-03-25T05:04:19.180Z,71.8
2018-03-25T05:05:19.193Z,71.8
2018-03-25T05:06:19.467Z,70.94
2018-03-25T05:07:19.479Z,71.41
2018-03-25T05:08:19.499Z,71.32
2018-03-25T05:09:19.504Z,71.51
2018-03-25T05:10:19.266Z,71.41
2018-03-25T05:11:19.339Z,71.41
2018-03-25T05:12:19.549Z,71.7
2018-03-25T05:13:19.570Z,71.8
2018-03-25T05:14:19.579Z,72.36
2018-03-25T05:15:19.598Z,71.51
2018-03-25T05:16:19.608Z,71.89
2018-03-25T05:17:19.621Z,71.7
2018-03-25T05:18:19.637Z,71.32
2018-03-25T05:19:19.651Z,71.8
2018-03-25T05:20:19.666Z,71.8
2018-03-25T05:21:19.676Z,71.98
2018-03-25T05:22:19.436Z,71.7
2018-03-25T05:23:19.707Z,71.7
2018-03-25T05:24:19.717Z,71.6
2018-03-25T05:25:19.485Z,71.8
2018-03-25T05:26:19.546Z,71.41
2018-03-25T05:27:19.762Z,71.51
2018-03-25T05:28:19.787Z,71.7
2018-03-25T05:29:19.793Z,71.03
2018-03-25T05:30:19.813Z,71.32
2018-03-25T05:31:19.570Z,71.22
2018-03-25T05:32:19.837Z,71.22
2018-03-25T05:33:19.873Z,70.84
2018-03-25T05:34:19.868Z,71.22
2018-03-25T05:35:19.874Z,71.51
2018-03-25T05:36:19.889Z,71.7
2018-03-25T05:37:19.903Z,71.13
2018-03-25T05:38:19.917Z,71.32
2018-03-25T05:39:19.677Z,71.51
2018-03-25T05:40:19.692Z,71.13
2018-03-25T05:41:20.010Z,71.22
2018-03-25T05:42:19.724Z,71.03
2018-03-25T05:43:19.748Z,71.51
2018-03-25T05:44:20.006Z,71.32
2018-03-25T05:45:19.766Z,71.32
2018-03-25T05:46:19.779Z,71.51
2018-03-25T05:47:19.794Z,71.32
2018-03-25T05:48:19.807Z,71.41
2018-03-25T05:49:20.078Z,70.84
2018-03-25T05:50:20.096Z,71.03
2018-03-25T05:51:20.111Z,71.6
2018-03-25T05:52:20.127Z,71.8
2018-03-25T05:53:19.886Z,71.6
2018-03-25T05:54:20.153Z,71.51
2018-03-25T05:55:20.167Z,71.41
2018-03-25T05:56:20.230Z,71.51
2018-03-25T05:57:19.944Z,71.8
2018-03-25T05:58:19.960Z,71.6
2018-03-25T05:59:20.233Z,71.13
2018-03-25T06:00:20.240Z,70.56
2018-03-25T06:01:20.316Z,71.03
2018-03-25T06:02:20.292Z,70.94
2018-03-25T06:03:20.285Z,70.56
2018-03-25T06:04:20.032Z,70.47
2018-03-25T06:05:20.305Z,69.99
2018-03-25T06:06:20.314Z,70.56
2018-03-25T06:07:20.330Z,70.56
2018-03-25T06:08:20.094Z,69.61
2018-03-25T06:09:20.384Z,69.8
2018-03-25T06:10:20.384Z,69.71
2018-03-25T06:11:20.546Z,69.71
2018-03-25T06:12:20.411Z,69.42
2018-03-25T06:13:20.426Z,69.42
2018-03-25T06:14:20.186Z,69.9
2018-03-25T06:15:20.471Z,69.9
2018-03-25T06:16:20.217Z,69.74
2018-03-25T06:17:20.489Z,69.33
2018-03-25T06:18:20.245Z,69.46
2018-03-25T06:19:20.265Z,68.98
2018-03-25T06:20:20.530Z,68.98
2018-03-25T06:21:20.543Z,69.27
2018-03-25T06:22:20.554Z,68.6
2018-03-25T06:23:20.579Z,67.75
2018-03-25T06:24:20.617Z,68.04
2018-03-25T06:25:20.351Z,67.94
2018-03-25T06:26:20.769Z,67.56
2018-03-25T06:27:20.640Z,67.56
2018-03-25T06:28:20.405Z,67.65
2018-03-25T06:29:20.663Z,66.52
2018-03-25T06:30:20.684Z,67.08
2018-03-25T06:31:20.708Z,66.52
2018-03-25T06:32:20.452Z,66.23
2018-03-25T06:33:20.727Z,66.33
2018-03-25T06:34:20.737Z,66.42
2018-03-25T06:35:20.498Z,66.8
2018-03-25T06:36:20.513Z,67.33
2018-03-25T06:37:20.528Z,66.89
2018-03-25T06:38:20.798Z,67.08
2018-03-25T06:39:20.818Z,67.18
2018-03-25T06:40:20.571Z,67.18
2018-03-25T06:41:20.735Z,66.61
2018-03-25T06:42:20.910Z,66.89
2018-03-25T06:43:20.870Z,67.33
2018-03-25T06:44:20.628Z,67.24
2018-03-25T06:45:20.903Z,67.33
2018-03-25T06:46:20.658Z,66.96
2018-03-25T06:47:20.926Z,67.43
2018-03-25T06:48:20.941Z,67.37
2018-03-25T06:49:20.958Z,66.52
2018-03-25T06:50:20.968Z,66.8
2018-03-25T06:51:20.984Z,66.33
2018-03-25T06:52:21.007Z,65.56
2018-03-25T06:53:21.024Z,65.28
2018-03-25T06:54:21.026Z,64.52
2018-03-25T06:55:21.042Z,64.71
2018-03-25T06:56:20.854Z,65
2018-03-25T06:57:21.083Z,64.9
2018-03-25T06:58:21.112Z,64.81
2018-03-25T06:59:21.101Z,64.62
2018-03-25T07:00:21.125Z,65
2018-03-25T07:01:20.878Z,65.09
2018-03-25T07:02:21.147Z,64.81
2018-03-25T07:03:21.167Z,63.95
2018-03-25T07:04:21.176Z,64.24
2018-03-25T07:05:21.194Z,64.43
2018-03-25T07:06:21.156Z,63.86
2018-03-25T07:07:21.228Z,64.33
2018-03-25T07:08:21.240Z,63.13
2018-03-25T07:09:21.256Z,63.32
2018-03-25T07:10:21.013Z,62.85
2018-03-25T07:11:21.330Z,62.37
2018-03-25T07:12:21.055Z,62.27
2018-03-25T07:13:21.321Z,62.27
2018-03-25T07:14:21.336Z,62.46
2018-03-25T07:15:21.343Z,62.56
2018-03-25T07:16:21.150Z,62.27
2018-03-25T07:17:21.390Z,62.37
2018-03-25T07:18:21.391Z,61.9
2018-03-25T07:19:21.407Z,61.61
2018-03-25T07:20:21.415Z,62.08
2018-03-25T07:21:21.431Z,61.93
2018-03-25T07:22:21.448Z,60.13
2018-03-25T07:23:21.461Z,59.46
2018-03-25T07:24:21.480Z,59.36
2018-03-25T07:25:21.492Z,59.08
2018-03-25T07:26:21.557Z,59.65
2018-03-25T07:27:21.526Z,59.46
2018-03-25T07:28:21.538Z,59.17
2018-03-25T07:29:21.559Z,58.61
2018-03-25T07:30:21.572Z,58.89
2018-03-25T07:31:21.332Z,58.51
2018-03-25T07:32:21.606Z,58.51
2018-03-25T07:33:21.364Z,59.08
2018-03-25T07:34:21.377Z,58.51
2018-03-25T07:35:21.645Z,58.32
2018-03-25T07:36:21.660Z,58.03
2018-03-25T07:37:21.426Z,57.65
2018-03-25T07:38:21.692Z,57.75
2018-03-25T07:39:21.703Z,57.28
2018-03-25T07:40:21.473Z,57.65
2018-03-25T07:41:21.792Z,57.94
2018-03-25T07:42:21.756Z,58.03
2018-03-25T07:43:21.771Z,57.59
2018-03-25T07:44:21.791Z,57.59
2018-03-25T07:45:21.803Z,57.59
2018-03-25T07:46:21.565Z,57.68
2018-03-25T07:47:21.836Z,56.35
2018-03-25T07:48:21.851Z,55.81
2018-03-25T07:49:21.866Z,56.29
2018-03-25T07:50:21.880Z,55.81
2018-03-25T07:51:21.893Z,56.19
2018-03-25T07:52:21.659Z,56
2018-03-25T07:53:21.674Z,55.33
2018-03-25T07:54:21.690Z,54.89
2018-03-25T07:55:21.958Z,54.89
2018-03-25T07:56:21.988Z,54.6
2018-03-25T07:57:21.992Z,54.5
2018-03-25T07:58:22.007Z,54.5
2018-03-25T07:59:21.774Z,54.22
2018-03-25T08:00:22.045Z,53.65
2018-03-25T08:01:22.061Z,53.94
2018-03-25T08:02:22.082Z,53.87
2018-03-25T08:03:21.841Z,53.67
2018-03-25T08:04:21.878Z,53.49
2018-03-25T08:05:22.129Z,53.58
2018-03-25T08:06:22.146Z,53.49
2018-03-25T08:07:21.907Z,53.67
2018-03-25T08:08:22.178Z,53.67
2018-03-25T08:09:22.198Z,53.2
2018-03-25T08:10:22.214Z,52.82
2018-03-25T08:11:22.233Z,52.15
2018-03-25T08:12:21.994Z,52.09
2018-03-25T08:13:22.263Z,51.61
2018-03-25T08:14:22.287Z,50.75
2018-03-25T08:15:22.304Z,51.14
2018-03-25T08:16:22.319Z,50.49
2018-03-25T08:17:22.337Z,50.68
2018-03-25T08:18:22.364Z,49.44
2018-03-25T08:19:22.368Z,48.97
2018-03-25T08:20:22.132Z,48.21
2018-03-25T08:21:22.150Z,48.3
2018-03-25T08:22:22.170Z,48.02
2018-03-25T08:23:22.444Z,48.68
2018-03-25T08:24:22.457Z,48.49
2018-03-25T08:25:22.477Z,48.3
2018-03-25T08:26:22.494Z,48.11
2018-03-25T08:27:22.514Z,47.54
2018-03-25T08:28:22.532Z,46.78
2018-03-25T08:29:22.557Z,46.49
2018-03-25T08:30:22.563Z,46.68
2018-03-25T08:31:22.582Z,46.58
2018-03-25T08:32:22.346Z,46.2
2018-03-25T08:33:22.623Z,46.13
2018-03-25T08:34:22.639Z,45.37
2018-03-25T08:35:22.706Z,45.18
2018-03-25T08:36:22.675Z,45.18
2018-03-25T08:37:22.699Z,45.65
2018-03-25T08:38:22.711Z,44.32
2018-03-25T08:39:22.741Z,43.08
2018-03-25T08:40:22.598Z,43.37
2018-03-25T08:41:22.512Z,42.6
2018-03-25T08:42:22.791Z,42.32
2018-03-25T08:43:22.548Z,42.13
2018-03-25T08:44:22.824Z,41.75
2018-03-25T08:45:22.595Z,42.22
2018-03-25T08:46:22.861Z,42.82
2018-03-25T08:47:22.621Z,43.39
2018-03-25T08:48:22.640Z,41.48
2018-03-25T08:49:22.916Z,41.48
2018-03-25T08:50:22.678Z,41.1
2018-03-25T08:51:22.956Z,41.1
2018-03-25T08:52:22.972Z,41.29
2018-03-25T08:53:22.734Z,41.31
2018-03-25T08:54:22.753Z,40.74
2018-03-25T08:55:23.029Z,40.64
2018-03-25T08:56:23.054Z,40.64
2018-03-25T08:57:23.067Z,40.45
2018-03-25T08:58:23.098Z,39.78
2018-03-25T08:59:23.106Z,40.07
2018-03-25T09:00:23.122Z,39.88
2018-03-25T09:01:23.144Z,39.71
2018-03-25T09:02:23.174Z,38.76
2018-03-25T09:03:23.183Z,38.47
2018-03-25T09:04:23.202Z,38.56
2018-03-25T09:05:23.222Z,39.23
2018-03-25T09:06:23.244Z,39.23
2018-03-25T09:07:23.257Z,39.42
2018-03-25T09:08:23.280Z,39.23
2018-03-25T09:09:23.299Z,39.04
2018-03-25T09:10:23.321Z,38.37
2018-03-25T09:11:23.338Z,38.28
2018-03-25T09:12:23.372Z,39.14
2018-03-25T09:13:23.119Z,39.14
2018-03-25T09:14:23.143Z,39.23
2018-03-25T09:15:23.414Z,38.37
2018-03-25T09:16:23.435Z,39.14
2018-03-25T09:17:23.451Z,38.37
2018-03-25T09:18:23.474Z,38.09
2018-03-25T09:19:23.494Z,39.23
2018-03-25T09:20:23.511Z,39.52
2018-03-25T09:21:23.530Z,38.47
2018-03-25T09:22:23.300Z,37.73
2018-03-25T09:23:23.316Z,37.82
2018-03-25T09:24:23.589Z,37.63
2018-03-25T09:25:23.357Z,37.82
2018-03-25T09:26:23.381Z,37.73
2018-03-25T09:27:23.649Z,36.88
2018-03-25T09:28:23.418Z,36.41
2018-03-25T09:29:23.692Z,36.02
2018-03-25T09:30:23.713Z,36.31
2018-03-25T09:31:23.477Z,36.02
2018-03-25T09:32:23.757Z,35.74
2018-03-25T09:33:23.794Z,35.35
2018-03-25T09:34:23.538Z,35.06
2018-03-25T09:35:23.815Z,35.16
2018-03-25T09:36:23.835Z,34.89
2018-03-25T09:37:23.865Z,34.7
2018-03-25T09:38:23.624Z,35.47
2018-03-25T09:39:23.899Z,34.03
2018-03-25T09:40:23.917Z,33.75
2018-03-25T09:41:23.948Z,33.56
2018-03-25T09:42:23.962Z,33.17
2018-03-25T09:43:23.985Z,33.28
2018-03-25T09:44:24.008Z,32.25
2018-03-25T09:45:24.039Z,31.2
2018-03-25T09:46:24.058Z,31.01
2018-03-25T09:47:24.073Z,30.64
2018-03-25T09:48:24.104Z,29.97
2018-03-25T09:49:23.866Z,30.06
2018-03-25T09:50:24.141Z,30.16
2018-03-25T09:51:24.172Z,30.84
2018-03-25T09:52:24.192Z,30.08
2018-03-25T09:53:24.221Z,30
2018-03-25T09:54:24.241Z,29.05
2018-03-25T09:55:24.269Z,28.57
2018-03-25T09:56:24.295Z,27.82
2018-03-25T09:57:24.319Z,27.15
2018-03-25T09:58:24.343Z,27.25
2018-03-25T09:59:24.389Z,26.78
2018-03-25T10:00:24.395Z,26.87
2018-03-25T10:01:24.420Z,26.39
2018-03-25T10:02:24.448Z,26.21
2018-03-25T10:03:24.475Z,26.5
2018-03-25T10:04:24.509Z,25.46
2018-03-25T10:05:24.532Z,25.94
2018-03-25T10:06:24.540Z,24.51
2018-03-25T10:07:24.569Z,24.32
2018-03-25T10:08:24.595Z,23.93
2018-03-25T10:09:24.370Z,23.93
2018-03-25T10:10:24.663Z,24.61
2018-03-25T10:11:24.447Z,24.9
2018-03-25T10:12:24.729Z,24.52
2018-03-25T10:13:24.492Z,23.67
2018-03-25T10:14:24.775Z,23.19
2018-03-25T10:15:24.827Z,23.09
2018-03-25T10:16:24.578Z,22.61
2018-03-25T10:17:24.859Z,22.43
2018-03-25T10:18:24.889Z,22.24
2018-03-25T10:19:24.913Z,22.42
2018-03-25T10:20:24.948Z,22.05
2018-03-25T10:21:24.974Z,22.24
2018-03-25T10:22:25.004Z,22.05
2018-03-25T10:23:25.043Z,21.48
2018-03-25T10:24:25.060Z,21.28
2018-03-25T10:25:24.835Z,20.7
2018-03-25T10:26:25.119Z,21.48
2018-03-25T10:27:25.197Z,20.33
2018-03-25T10:28:24.925Z,20.62
2018-03-25T10:29:24.973Z,20.33
2018-03-25T10:30:24.981Z,20.62
2018-03-25T10:31:25.009Z,20.8
2018-03-25T10:32:25.040Z,20.8
2018-03-25T10:33:25.068Z,20.62
2018-03-25T10:34:25.098Z,20.72
2018-03-25T10:35:25.125Z,20.53
2018-03-25T10:36:25.408Z,19.58
2018-03-25T10:37:25.441Z,19.58
2018-03-25T10:38:25.215Z,19.68
2018-03-25T10:39:25.500Z,19.1
2018-03-25T10:40:25.535Z,19.12
2018-03-25T10:41:25.304Z,19.02
2018-03-25T10:42:25.636Z,18.82
2018-03-25T10:43:25.363Z,18.74
2018-03-25T10:44:25.394Z,18.16
2018-03-25T10:45:25.680Z,17.58
2018-03-25T10:46:25.712Z,17.39
2018-03-25T10:47:25.622Z,18.07
2018-03-25T10:48:25.513Z,18.07
2018-03-25T10:49:25.786Z,17.3
2018-03-25T10:50:25.820Z,17.2
2018-03-25T10:51:25.856Z,17.4
2018-03-25T10:52:25.629Z,16.82
2018-03-25T10:53:25.914Z,16.33
2018-03-25T10:54:25.693Z,16.72
2018-03-25T10:55:25.974Z,16.33
2018-03-25T10:56:26.016Z,16.34
2018-03-25T10:57:26.191Z,16.35
2018-03-25T10:58:26.080Z,15.58
2018-03-25T10:59:26.108Z,15.48
2018-03-25T11:00:26.145Z,15.58
2018-03-25T11:01:26.199Z,16.05
2018-03-25T11:02:26.203Z,15.86
2018-03-25T11:03:26.235Z,16.25
2018-03-25T11:04:26.289Z,15.58
2018-03-25T11:05:26.046Z,15.58
2018-03-25T11:06:26.335Z,15.58
2018-03-25T11:07:26.411Z,15.2
2018-03-25T11:08:26.391Z,15.2
2018-03-25T11:09:26.423Z,15.69
2018-03-25T11:10:26.205Z,15.11
2018-03-25T11:11:26.234Z,14.44
2018-03-25T11:12:26.524Z,14.24
2018-03-25T11:13:26.550Z,14.24
2018-03-25T11:14:26.327Z,15
2018-03-25T11:15:26.360Z,14.53
2018-03-25T11:16:26.646Z,15.01
2018-03-25T11:17:26.422Z,15.41
2018-03-25T11:18:26.713Z,14.44
2018-03-25T11:19:26.488Z,14.06
2018-03-25T11:20:26.774Z,13.87
2018-03-25T11:21:26.551Z,13.86
2018-03-25T11:22:26.893Z,14.34
2018-03-25T11:23:26.871Z,13.56
2018-03-25T11:24:26.902Z,13.47
2018-03-25T11:25:26.934Z,13.57
2018-03-25T11:26:26.972Z,13.29
2018-03-25T11:27:27.004Z,13.29
2018-03-25T11:28:27.041Z,13.38
2018-03-25T11:29:26.811Z,13.96
2018-03-25T11:30:27.098Z,13.87
2018-03-25T11:31:27.136Z,14.45
2018-03-25T11:32:27.159Z,13.67
2018-03-25T11:33:27.192Z,13.58
2018-03-25T11:34:26.976Z,13.79
2018-03-25T11:35:27.257Z,13.41
2018-03-25T11:36:27.302Z,12.45
2018-03-25T11:37:27.072Z,12.45
2018-03-25T11:38:27.362Z,12.45
2018-03-25T11:39:27.401Z,11.96
2018-03-25T11:40:27.423Z,11.87
2018-03-25T11:41:27.459Z,11.77
2018-03-25T11:42:27.490Z,11.57
2018-03-25T11:43:27.520Z,11.68
2018-03-25T11:44:27.549Z,11.57
2018-03-25T11:45:27.359Z,11.76
2018-03-25T11:46:27.620Z,12.06
2018-03-25T11:47:27.689Z,12.07
2018-03-25T11:48:27.421Z,11.1
2018-03-25T11:49:27.456Z,11.49
2018-03-25T11:50:27.738Z,10.81
2018-03-25T11:51:27.543Z,10.42
2018-03-25T11:52:27.807Z,10.22
2018-03-25T11:53:27.591Z,10.8
2018-03-25T11:54:27.919Z,10.8
2018-03-25T11:55:27.656Z,10.61
2018-03-25T11:56:27.939Z,11.57
2018-03-25T11:57:27.974Z,11.67
2018-03-25T11:58:27.756Z,11.67
2018-03-25T11:59:27.798Z,11.58
2018-03-25T12:00:27.832Z,10.99
2018-03-25T12:01:28.118Z,11.77
2018-03-25T12:02:28.159Z,11.67
2018-03-25T12:03:28.188Z,11.68
2018-03-25T12:04:28.247Z,11.28
2018-03-25T12:05:28.257Z,11.58
2018-03-25T12:06:28.034Z,11.29
2018-03-25T12:07:28.327Z,11.1
2018-03-25T12:08:28.362Z,10.03
2018-03-25T12:09:28.393Z,10.13
2018-03-25T12:10:28.426Z,10.23
2018-03-25T12:11:28.461Z,10.04
2018-03-25T12:12:28.492Z,9.36
2018-03-25T12:13:28.527Z,10.05
2018-03-25T12:14:28.307Z,9.18
2018-03-25T12:15:28.603Z,8.5
2018-03-25T12:16:28.373Z,9.08
2018-03-25T12:17:28.662Z,9.27
2018-03-25T12:18:28.491Z,9.46
2018-03-25T12:19:28.478Z,9.17
2018-03-25T12:20:28.844Z,9.08
2018-03-25T12:21:28.810Z,9.36
2018-03-25T12:22:28.835Z,9.17
2018-03-25T12:23:28.869Z,9.47
2018-03-25T12:24:28.651Z,8.88
2018-03-25T12:25:28.936Z,9.46
2018-03-25T12:26:28.718Z,9.16
2018-03-25T12:27:28.753Z,9.64
2018-03-25T12:28:29.044Z,9.94
2018-03-25T12:29:29.075Z,9.25
2018-03-25T12:30:28.852Z,9.45
2018-03-25T12:31:29.142Z,9.06
2018-03-25T12:32:28.924Z,9.07
2018-03-25T12:33:29.463Z,8.78
2018-03-25T12:34:28.992Z,8.88
2018-03-25T12:35:29.279Z,9.28
2018-03-25T12:36:29.316Z,8.69
2018-03-25T12:37:29.348Z,8.31
2018-03-25T12:38:29.388Z,8.69
2018-03-25T12:39:29.420Z,9.07
2018-03-25T12:40:29.200Z,8.97
2018-03-25T12:41:29.488Z,8.98
2018-03-25T12:42:29.528Z,8.79
2018-03-25T12:43:29.561Z,8.21
2018-03-25T12:44:29.339Z,8.11
2018-03-25T12:45:29.632Z,8.89
2018-03-25T12:46:29.662Z,8.59
2018-03-25T12:47:29.449Z,8.88
2018-03-25T12:48:29.879Z,8.97
2018-03-25T12:49:29.767Z,9.17
2018-03-25T12:50:29.806Z,9.06
2018-03-25T12:51:29.588Z,9.64
2018-03-25T12:52:29.877Z,8.87
2018-03-25T12:53:29.908Z,9.07
2018-03-25T12:54:29.962Z,8.59
2018-03-25T12:55:29.976Z,8.59
2018-03-25T12:56:30.008Z,8.4
2018-03-25T12:57:29.790Z,7.63